Time;durP1;ratioP1;P1;durP2;ratioP2;P2;SDS_P1;SDS_P2;PMS_P1;PMS_P2;Temp;Humidity;BMP_temperature;BMP_pressure;BME280_temperature;BME280_humidity;BME280_pressure;Samples;Min_cycle;Max_cycle;Signal;HPM_P1;HPM_P2
2023/12/14 00:01:13;;;;;;;;;0.25;0.25;;;;;11.61;85.58;100638.06;5033618;28;45672;-68
2023/12/14 00:03:40;;;;;;;;;2.75;2.75;;;;;11.66;85.58;100660.13;5035402;28;47341;-68
2023/12/14 00:06:07;;;;;;;;;1.00;1.00;;;;;11.61;85.21;100660.34;5038465;28;45533;-68
2023/12/14 00:08:32;;;;;;;;;1.00;1.00;;;;;11.55;85.42;100652.53;5053919;28;45689;-68
2023/12/14 00:11:03;;;;;;;;;1.00;1.00;;;;;11.60;85.51;100658.59;5038726;28;45454;-68
2023/12/14 00:13:28;;;;;;;;;3.00;1.00;;;;;11.71;85.42;100679.59;5039303;28;47412;-68
2023/12/14 00:15:54;;;;;;;;;1.00;1.00;;;;;11.72;85.39;100675.09;5070023;28;53136;-68
2023/12/14 00:18:19;;;;;;;;;1.75;0.75;;;;;11.66;85.21;100662.81;5053232;28;45426;-68
2023/12/14 00:20:44;;;;;;;;;1.00;1.00;;;;;11.68;84.67;100679.69;5050038;28;52235;-68
2023/12/14 00:23:09;;;;;;;;;1.00;1.00;;;;;11.70;85.03;100691.19;5045840;28;45413;-68
2023/12/14 00:25:35;;;;;;;;;0.00;0.00;;;;;11.74;85.00;100699.97;5047050;28;45614;-68
2023/12/14 00:28:00;;;;;;;;;1.00;1.00;;;;;11.67;85.09;100684.16;5050610;28;59725;-68
2023/12/14 00:30:25;;;;;;;;;2.00;1.00;;;;;11.73;84.82;100692.84;5066440;28;64351;-68
2023/12/14 00:32:51;;;;;;;;;1.00;1.00;;;;;11.73;84.61;100698.22;5053117;28;59455;-68
2023/12/14 00:35:16;;;;;;;;;0.00;0.00;;;;;11.72;84.74;100707.19;5066795;28;45461;-68
2023/12/14 00:37:41;;;;;;;;;0.00;0.00;;;;;11.78;84.53;100715.84;5063384;28;58889;-68
2023/12/14 00:40:07;;;;;;;;;1.75;1.75;;;;;11.76;84.60;100725.72;5051425;28;45411;-68
2023/12/14 00:42:33;;;;;;;;;0.50;0.50;;;;;11.74;84.29;100719.53;5040742;28;46178;-68
2023/12/14 00:44:58;;;;;;;;;2.50;0.00;;;;;11.71;84.33;100724.13;5051101;28;45451;-68
2023/12/14 00:47:23;;;;;;;;;1.50;0.00;;;;;11.72;84.30;100741.94;5038522;28;59520;-68
2023/12/14 00:49:48;;;;;;;;;1.50;0.75;;;;;11.58;84.82;100729.97;5050830;28;64417;-68
2023/12/14 00:52:14;;;;;;;;;0.75;0.75;;;;;11.60;84.15;100740.59;5034432;28;59131;-68
2023/12/14 00:54:39;;;;;;;;;1.00;0.00;;;;;11.67;84.65;100758.16;5058290;28;53272;-68
2023/12/14 00:57:04;;;;;;;;;2.25;0.00;;;;;11.65;84.58;100750.19;5051188;28;45360;-68
2023/12/14 00:59:29;;;;;;;;;1.50;1.00;;;;;11.62;84.48;100750.28;5058169;28;62685;-68
2023/12/14 01:01:55;;;;;;;;;0.00;0.00;;;;;11.61;84.52;100753.00;5043816;28;59578;-68
2023/12/14 01:04:20;;;;;;;;;1.00;1.00;;;;;11.60;84.62;100751.28;5026402;28;57546;-68
2023/12/14 01:06:45;;;;;;;;;1.50;0.00;;;;;11.60;84.51;100768.19;5038065;28;49164;-68
2023/12/14 01:09:11;;;;;;;;;0.50;0.50;;;;;11.55;84.63;100758.59;5052795;28;45433;-68
2023/12/14 01:11:36;;;;;;;;;1.00;0.00;;;;;11.50;84.83;100754.28;5037903;28;60449;-68
2023/12/14 01:14:01;;;;;;;;;0.00;0.00;;;;;11.50;84.91;100761.44;5044924;28;57314;-68
2023/12/14 01:16:27;;;;;;;;;1.00;1.00;;;;;11.52;84.90;100780.97;5008180;28;57824;-68
2023/12/14 01:18:52;;;;;;;;;0.00;0.00;;;;;11.41;85.23;100768.00;5040696;28;45625;-68
2023/12/14 01:21:17;;;;;;;;;2.00;0.00;;;;;11.46;85.15;100795.44;5057133;28;46052;-68
2023/12/14 01:23:43;;;;;;;;;0.00;0.00;;;;;11.41;85.11;100800.06;5041353;28;55767;-68
2023/12/14 01:26:09;;;;;;;;;0.00;0.00;;;;;11.29;85.28;100790.69;5050868;28;45333;-68
2023/12/14 01:28:34;;;;;;;;;0.00;0.00;;;;;11.36;85.61;100801.13;5047050;28;45279;-68
2023/12/14 01:30:59;;;;;;;;;1.00;0.00;;;;;11.37;85.47;100809.09;5045456;28;46172;-68
2023/12/14 01:33:25;;;;;;;;;0.00;0.00;;;;;11.34;85.39;100811.88;5044020;28;67488;-68
2023/12/14 01:35:50;;;;;;;;;0.00;0.00;;;;;11.41;85.59;100817.88;5027002;28;45687;-68
2023/12/14 01:38:15;;;;;;;;;0.00;0.00;;;;;11.32;85.84;100819.06;5056551;28;65863;-68
2023/12/14 01:40:40;;;;;;;;;0.00;0.00;;;;;11.32;85.64;100824.44;5032676;28;46750;-68
2023/12/14 01:43:12;;;;;;;;;0.00;0.00;;;;;11.35;85.46;100826.13;5023436;28;45649;-68
2023/12/14 01:45:38;;;;;;;;;2.00;0.00;;;;;11.41;85.40;100836.59;5050150;28;45385;-68
2023/12/14 01:48:04;;;;;;;;;0.75;0.75;;;;;11.40;85.43;100843.75;5054192;28;45324;-68
2023/12/14 01:50:29;;;;;;;;;1.00;0.00;;;;;11.39;85.58;100847.34;5044150;28;45716;-68
2023/12/14 01:52:55;;;;;;;;;0.00;0.00;;;;;11.30;85.62;100839.66;5039585;28;45301;-68
2023/12/14 01:55:20;;;;;;;;;0.75;0.00;;;;;11.27;85.30;100837.06;5042079;28;57287;-68
2023/12/14 01:57:45;;;;;;;;;0.00;0.00;;;;;11.31;85.28;100852.97;5057656;28;45566;-68
2023/12/14 02:00:27;;;;;;;;;0.00;0.00;;;;;11.25;84.98;100841.59;5057390;28;45319;-68
2023/12/14 02:02:52;;;;;;;;;0.00;0.00;;;;;11.38;85.52;100875.00;5030970;28;45348;-68
2023/12/14 02:05:18;;;;;;;;;0.25;0.00;;;;;11.31;85.00;100869.00;5057684;28;45564;-68
2023/12/14 02:07:43;;;;;;;;;0.75;0.00;;;;;11.26;85.57;100870.06;5046001;28;45617;-68
2023/12/14 02:10:08;;;;;;;;;0.75;0.00;;;;;11.27;85.99;100878.03;5061064;28;45337;-68
2023/12/14 02:12:34;;;;;;;;;0.00;0.00;;;;;11.36;85.82;100900.91;5051640;28;45323;-68
2023/12/14 02:14:59;;;;;;;;;0.25;0.25;;;;;11.34;85.81;100912.56;5049116;28;60391;-68
2023/12/14 02:17:24;;;;;;;;;0.00;0.00;;;;;11.32;86.62;100912.63;5044400;28;45746;-68
2023/12/14 02:19:50;;;;;;;;;0.00;0.00;;;;;11.24;86.29;100909.31;5063321;28;57070;-68
2023/12/14 02:22:17;;;;;;;;;0.00;0.00;;;;;11.25;86.42;100913.75;5041409;28;45586;-68
2023/12/14 02:24:42;;;;;;;;;0.00;0.00;;;;;11.31;86.39;100917.09;5043861;28;45387;-68
2023/12/14 02:27:08;;;;;;;;;0.00;0.00;;;;;11.35;85.74;100925.88;5042862;28;45652;-68
2023/12/14 02:29:33;;;;;;;;;0.00;0.00;;;;;11.38;86.24;100930.28;5061037;28;46419;-68
2023/12/14 02:31:58;;;;;;;;;0.75;0.00;;;;;11.35;86.06;100931.22;5035291;28;46476;-68
2023/12/14 02:34:24;;;;;;;;;0.75;0.00;;;;;11.34;86.16;100933.94;5055087;28;47760;-68
2023/12/14 02:36:50;;;;;;;;;2.50;1.00;;;;;11.29;86.26;100926.06;5043025;28;45530;-68
2023/12/14 02:39:15;;;;;;;;;0.75;0.00;;;;;11.28;86.18;100927.88;5059070;28;45435;-68
2023/12/14 02:41:40;;;;;;;;;0.75;0.00;;;;;11.32;86.25;100942.00;5030183;28;49568;-68
2023/12/14 02:44:06;;;;;;;;;0.50;0.50;;;;;11.17;86.37;100924.66;5060320;28;59384;-68
2023/12/14 02:46:31;;;;;;;;;2.00;0.00;;;;;11.30;86.17;100951.88;5053002;28;45517;-68
2023/12/14 02:48:56;;;;;;;;;1.00;0.00;;;;;11.20;85.86;100934.41;5033996;28;59621;-68
2023/12/14 02:51:22;;;;;;;;;0.00;0.00;;;;;11.19;85.96;100929.97;5042789;28;45274;-68
2023/12/14 02:53:47;;;;;;;;;0.00;0.00;;;;;11.31;86.61;100953.66;5060697;28;45297;-68
2023/12/14 02:56:12;;;;;;;;;0.00;0.00;;;;;11.32;86.14;100966.94;5052172;28;58794;-67
2023/12/14 02:58:38;;;;;;;;;0.00;0.00;;;;;11.27;86.18;100946.63;5047524;28;47140;-68
2023/12/14 03:01:04;;;;;;;;;0.00;0.00;;;;;11.32;86.17;100969.59;5052897;28;45374;-68
2023/12/14 03:03:29;;;;;;;;;0.00;0.00;;;;;11.36;85.76;100966.84;5042831;28;45332;-68
2023/12/14 03:05:55;;;;;;;;;0.00;0.00;;;;;11.35;86.04;100959.75;5052815;28;45249;-68
2023/12/14 03:08:20;;;;;;;;;1.00;0.00;;;;;11.33;86.01;100975.84;5052017;28;45326;-68
2023/12/14 03:10:45;;;;;;;;;0.75;0.00;;;;;11.38;85.46;100989.94;5059991;28;48246;-68
2023/12/14 03:13:10;;;;;;;;;0.00;0.00;;;;;11.25;86.13;100976.06;5045679;28;45682;-68
2023/12/14 03:15:36;;;;;;;;;0.00;0.00;;;;;11.29;85.89;100984.88;5040248;28;48159;-68
2023/12/14 03:18:03;;;;;;;;;0.00;0.00;;;;;11.35;86.36;100998.03;5040093;28;47501;-68
2023/12/14 03:20:28;;;;;;;;;0.00;0.00;;;;;11.39;85.92;101002.34;5060402;28;45430;-68
2023/12/14 03:22:53;;;;;;;;;0.00;0.00;;;;;11.39;85.90;100999.69;5045439;28;45388;-68
2023/12/14 03:25:19;;;;;;;;;0.00;0.00;;;;;11.42;85.25;101002.25;5037449;28;59132;-68
2023/12/14 03:27:44;;;;;;;;;0.00;0.00;;;;;11.44;85.44;100996.88;5059689;28;57641;-68
2023/12/14 03:30:10;;;;;;;;;0.00;0.00;;;;;11.43;85.54;101008.50;5055811;28;45418;-68
2023/12/14 03:32:36;;;;;;;;;1.00;0.00;;;;;11.30;85.54;100991.97;5058958;28;45463;-68
2023/12/14 03:35:01;;;;;;;;;0.25;0.00;;;;;11.39;85.40;101006.84;5053950;28;45507;-68
2023/12/14 03:37:27;;;;;;;;;0.00;0.00;;;;;11.44;85.67;101027.16;5047601;28;45325;-68
2023/12/14 03:39:52;;;;;;;;;0.25;0.00;;;;;11.41;85.31;101029.94;5041482;28;45820;-68
2023/12/14 03:42:17;;;;;;;;;0.75;0.00;;;;;11.47;85.74;101034.19;5047483;28;45236;-68
2023/12/14 03:44:43;;;;;;;;;0.00;0.00;;;;;11.41;85.62;101032.59;5049870;28;45444;-68
2023/12/14 03:47:08;;;;;;;;;0.00;0.00;;;;;11.43;85.75;101045.94;5046897;28;46818;-68
2023/12/14 03:49:38;;;;;;;;;0.00;0.00;;;;;11.42;85.61;101055.72;5030232;28;45316;-68
2023/12/14 03:52:04;;;;;;;;;0.00;0.00;;;;;11.35;85.69;101042.63;5060153;28;45378;-68
2023/12/14 03:54:29;;;;;;;;;1.00;0.00;;;;;11.34;86.01;101046.19;5047326;28;45751;-68
2023/12/14 03:56:54;;;;;;;;;1.00;0.00;;;;;11.39;85.53;101062.97;5051942;28;49612;-68
2023/12/14 03:59:19;;;;;;;;;0.00;0.00;;;;;11.27;85.73;101050.84;5041436;28;45391;-68
2023/12/14 04:01:45;;;;;;;;;1.25;1.25;;;;;11.27;85.90;101064.22;5027923;28;45487;-68
2023/12/14 04:04:10;;;;;;;;;1.25;0.25;;;;;11.33;86.02;101077.41;5057077;28;51865;-68
2023/12/14 04:06:35;;;;;;;;;0.75;0.75;;;;;11.26;85.82;101070.47;5059538;28;46371;-68
2023/12/14 04:09:01;;;;;;;;;1.00;1.00;;;;;11.32;85.90;101078.31;5072034;28;65373;-68
2023/12/14 04:11:26;;;;;;;;;1.00;1.00;;;;;11.35;85.61;101086.25;5058664;28;49031;-68
2023/12/14 04:13:53;;;;;;;;;1.25;1.25;;;;;11.26;85.46;101074.03;5040872;28;45551;-68
2023/12/14 04:16:22;;;;;;;;;1.00;1.00;;;;;11.23;85.68;101084.81;5058902;28;45491;-68
2023/12/14 04:18:49;;;;;;;;;0.50;0.50;;;;;11.25;85.48;101096.31;5029408;28;45471;-68
2023/12/14 04:21:14;;;;;;;;;2.00;2.00;;;;;11.19;86.24;101082.28;5058013;28;45391;-68
2023/12/14 04:23:40;;;;;;;;;1.50;1.50;;;;;11.30;86.04;101110.44;5039245;28;45441;-68
2023/12/14 04:26:05;;;;;;;;;2.00;2.00;;;;;11.29;86.16;101121.16;5057274;28;51262;-68
2023/12/14 04:28:30;;;;;;;;;2.00;2.00;;;;;11.30;86.29;101126.47;5039490;28;58200;-68
2023/12/14 04:30:56;;;;;;;;;2.75;2.25;;;;;11.23;85.95;101114.22;5047501;28;48939;-68
2023/12/14 04:33:21;;;;;;;;;2.00;1.75;;;;;11.36;85.98;101145.91;5034226;28;47387;-68
2023/12/14 04:35:46;;;;;;;;;2.75;2.75;;;;;11.33;85.93;101133.53;5055050;28;46596;-68
2023/12/14 04:38:12;;;;;;;;;2.00;2.00;;;;;11.40;85.64;101143.09;5027562;28;45560;-68
2023/12/14 04:40:37;;;;;;;;;1.00;1.00;;;;;11.34;85.50;101151.28;5042725;28;45446;-68
2023/12/14 04:43:03;;;;;;;;;2.00;2.00;;;;;11.39;85.76;101165.41;5053223;28;45250;-68
2023/12/14 04:45:28;;;;;;;;;5.75;4.00;;;;;11.37;86.00;101167.25;5051663;28;45914;-68
2023/12/14 04:47:53;;;;;;;;;3.50;3.00;;;;;11.40;85.92;101182.34;5039514;28;51190;-68
2023/12/14 04:50:18;;;;;;;;;4.25;2.75;;;;;11.39;85.78;101181.44;5051095;28;45528;-68
2023/12/14 04:52:44;;;;;;;;;2.25;2.00;;;;;11.38;85.65;101197.56;5020237;28;52963;-68
2023/12/14 04:55:09;;;;;;;;;4.50;2.00;;;;;11.35;85.97;101198.50;5048265;28;45355;-68
2023/12/14 04:57:35;;;;;;;;;4.50;2.50;;;;;11.25;85.68;101194.34;5058267;28;45314;-67
2023/12/14 05:00:00;;;;;;;;;4.00;2.75;;;;;11.26;85.95;101196.06;5061888;28;45480;-68
2023/12/14 05:02:25;;;;;;;;;3.50;3.25;;;;;11.34;86.07;101206.56;5039932;28;45474;-68
2023/12/14 05:04:51;;;;;;;;;4.25;3.00;;;;;11.39;85.89;101208.16;5045254;28;45431;-68
2023/12/14 05:07:16;;;;;;;;;5.00;3.00;;;;;11.37;85.67;101199.31;5052911;28;56425;-68
2023/12/14 05:09:41;;;;;;;;;4.00;2.00;;;;;11.36;85.61;101213.63;5050946;28;45387;-67
2023/12/14 05:12:07;;;;;;;;;3.00;3.00;;;;;11.43;85.56;101236.59;5055056;28;45563;-67
2023/12/14 05:14:32;;;;;;;;;4.25;2.25;;;;;11.37;85.18;101219.84;5042302;28;46578;-67
2023/12/14 05:16:57;;;;;;;;;4.25;2.75;;;;;11.44;85.25;101226.75;5053153;28;45368;-68
2023/12/14 05:19:23;;;;;;;;;3.50;2.00;;;;;11.46;85.38;101235.59;5040809;28;45422;-67
2023/12/14 05:21:48;;;;;;;;;2.00;2.00;;;;;11.47;85.37;101246.25;5053355;28;45443;-68
2023/12/14 05:24:14;;;;;;;;;2.00;2.00;;;;;11.44;85.15;101241.03;5038702;28;45512;-68
2023/12/14 05:26:39;;;;;;;;;4.25;3.00;;;;;11.45;85.12;101249.91;5054744;28;46717;-68
2023/12/14 05:29:04;;;;;;;;;5.25;3.50;;;;;11.43;85.09;101263.31;5029897;28;57408;-68
2023/12/14 05:31:30;;;;;;;;;6.00;3.00;;;;;11.35;84.96;101259.09;5038518;28;51192;-68
2023/12/14 05:33:55;;;;;;;;;3.75;2.75;;;;;11.45;84.86;101279.31;5040247;28;47293;-68
2023/12/14 05:36:21;;;;;;;;;3.00;3.00;;;;;11.43;85.12;101276.69;5036162;28;63895;-68
2023/12/14 05:38:46;;;;;;;;;3.00;2.00;;;;;11.13;84.83;101235.63;5032955;28;45272;-67
2023/12/14 05:41:11;;;;;;;;;2.75;2.75;;;;;11.38;84.99;101281.28;5064775;28;45330;-68
2023/12/14 05:43:36;;;;;;;;;2.25;2.25;;;;;11.35;85.19;101280.50;5053777;28;47283;-68
2023/12/14 05:46:03;;;;;;;;;4.75;3.00;;;;;11.34;85.05;101284.06;5063996;28;45292;-67
2023/12/14 05:48:29;;;;;;;;;3.50;3.00;;;;;11.19;85.34;101255.97;5053657;28;45344;-68
2023/12/14 05:50:55;;;;;;;;;8.75;3.00;;;;;11.39;85.33;101285.69;5054720;28;45479;-68
2023/12/14 05:53:20;;;;;;;;;3.25;3.00;;;;;11.37;84.87;101290.22;5051599;28;46950;-68
2023/12/14 05:55:46;;;;;;;;;2.50;2.50;;;;;11.27;84.71;101283.34;5056073;28;45576;-68
2023/12/14 05:58:11;;;;;;;;;2.75;2.75;;;;;11.18;84.82;101284.47;5056619;28;45418;-68
2023/12/14 06:00:36;;;;;;;;;3.50;3.00;;;;;11.22;85.33;101298.63;5064194;28;50173;-68
2023/12/14 06:03:02;;;;;;;;;5.00;3.25;;;;;11.27;85.26;101307.41;5043201;28;47782;-67
2023/12/14 06:05:28;;;;;;;;;4.25;3.25;;;;;11.25;85.25;101315.47;5061419;28;45445;-68
2023/12/14 06:07:53;;;;;;;;;4.75;3.00;;;;;11.31;85.54;101317.13;5033646;28;45429;-68
2023/12/14 06:10:19;;;;;;;;;3.25;1.75;;;;;11.25;85.59;101303.91;5042333;28;45513;-67
2023/12/14 06:12:44;;;;;;;;;3.50;2.50;;;;;11.24;86.34;101311.06;5059655;28;45448;-67
2023/12/14 06:15:13;;;;;;;;;4.50;2.75;;;;;11.26;85.97;101322.56;5061025;28;45358;-68
2023/12/14 06:17:39;;;;;;;;;5.50;2.75;;;;;11.34;85.99;101332.19;5049818;28;45363;-68
2023/12/14 06:20:08;;;;;;;;;3.25;1.50;;;;;11.29;86.00;101338.53;5049168;28;45399;-68
2023/12/14 06:22:33;;;;;;;;;3.25;3.25;;;;;11.22;85.60;101338.72;5041111;28;47884;-68
2023/12/14 06:24:59;;;;;;;;;3.50;2.00;;;;;11.35;85.97;101366.88;5027064;28;45367;-68
2023/12/14 06:27:26;;;;;;;;;5.25;3.25;;;;;11.28;86.06;101350.13;5048163;28;45931;-68
2023/12/14 06:29:52;;;;;;;;;7.75;3.00;;;;;11.35;85.68;101374.91;5041330;28;45655;-68
2023/12/14 06:32:17;;;;;;;;;4.00;4.00;;;;;11.38;85.64;101376.63;5039791;28;46934;-68
2023/12/14 06:34:42;;;;;;;;;2.25;2.25;;;;;11.37;85.50;101394.44;5027551;28;45382;-68
2023/12/14 06:37:08;;;;;;;;;7.25;5.50;;;;;11.34;85.50;101389.19;5036710;28;56716;-68
2023/12/14 06:39:33;;;;;;;;;4.00;4.00;;;;;11.37;85.29;101402.47;5056251;28;45317;-68
2023/12/14 06:41:58;;;;;;;;;3.50;3.50;;;;;11.21;85.35;101382.38;5058707;28;45397;-68
2023/12/14 06:44:26;;;;;;;;;4.75;4.00;;;;;11.26;85.74;101404.53;5043758;28;45419;-68
2023/12/14 06:46:51;;;;;;;;;6.00;5.00;;;;;11.28;85.51;101400.91;5049825;28;45359;-68
2023/12/14 06:49:17;;;;;;;;;3.00;3.00;;;;;11.24;85.34;101409.94;5044886;28;45678;-68
2023/12/14 06:51:42;;;;;;;;;4.00;2.00;;;;;11.31;85.52;101434.72;5047513;28;45493;-68
2023/12/14 06:54:07;;;;;;;;;3.00;2.75;;;;;11.30;85.01;101431.16;5051864;28;45487;-68
2023/12/14 06:56:33;;;;;;;;;4.00;4.00;;;;;11.19;85.22;101413.63;5060041;28;45371;-68
2023/12/14 06:58:58;;;;;;;;;6.50;3.00;;;;;11.32;85.42;101457.84;5030525;28;50475;-67
2023/12/14 07:01:23;;;;;;;;;2.00;1.25;;;;;11.31;85.19;101453.44;5057025;28;45371;-67
2023/12/14 07:03:49;;;;;;;;;3.00;3.00;;;;;11.16;85.09;101446.66;5045510;28;45545;-67
2023/12/14 07:06:15;;;;;;;;;3.00;2.00;;;;;11.20;85.19;101467.03;5051735;28;45425;-67
2023/12/14 07:08:41;;;;;;;;;3.25;3.25;;;;;11.26;85.36;101469.56;5049545;28;45440;-67
2023/12/14 07:11:11;;;;;;;;;1.75;1.75;;;;;11.31;85.25;101473.00;5040590;28;46229;-67
2023/12/14 07:13:36;;;;;;;;;2.50;1.75;;;;;11.36;85.31;101486.28;5040930;28;45502;-67
2023/12/14 07:16:07;;;;;;;;;1.25;1.25;;;;;11.38;85.14;101487.09;5058879;28;45555;-67
2023/12/14 07:18:34;;;;;;;;;1.25;1.00;;;;;11.40;85.31;101495.97;5028823;28;45505;-67
2023/12/14 07:21:00;;;;;;;;;2.75;2.50;;;;;11.32;85.05;101487.25;5048559;28;46118;-67
2023/12/14 07:23:26;;;;;;;;;3.00;2.00;;;;;11.31;84.69;101486.38;5051623;28;64475;-67
2023/12/14 07:25:52;;;;;;;;;3.00;2.00;;;;;11.32;85.00;101501.47;5047974;28;45717;-67
2023/12/14 07:28:17;;;;;;;;;3.00;2.00;;;;;11.26;85.11;101490.94;5053361;28;45518;-68
2023/12/14 07:30:42;;;;;;;;;3.25;1.50;;;;;11.32;85.44;101512.16;5028231;28;50171;-68
2023/12/14 07:33:08;;;;;;;;;2.00;1.00;;;;;11.24;85.13;101490.13;5054223;28;45477;-68
2023/12/14 07:35:33;;;;;;;;;5.00;2.25;;;;;11.27;84.77;101506.06;5028928;28;45455;-68
2023/12/14 07:37:58;;;;;;;;;2.00;2.00;;;;;11.15;85.10;101498.31;5048981;28;65312;-68
2023/12/14 07:40:23;;;;;;;;;3.50;2.25;;;;;11.29;85.24;101532.75;5039689;28;46988;-68
2023/12/14 07:42:49;;;;;;;;;4.50;1.75;;;;;11.19;84.94;101520.50;5046499;28;62889;-68
2023/12/14 07:45:14;;;;;;;;;2.00;1.00;;;;;11.17;85.36;101533.91;5050764;28;54412;-68
2023/12/14 07:47:40;;;;;;;;;4.00;2.00;;;;;11.23;85.29;101544.47;5039521;28;45482;-68
2023/12/14 07:50:05;;;;;;;;;4.25;2.50;;;;;11.31;85.25;101550.53;5041296;28;45897;-68
2023/12/14 07:52:31;;;;;;;;;2.00;2.00;;;;;11.28;85.43;101544.38;5055035;28;45702;-66
2023/12/14 07:54:56;;;;;;;;;3.25;2.00;;;;;11.28;85.28;101544.38;5036598;28;45528;-69
2023/12/14 07:57:21;;;;;;;;;2.00;1.00;;;;;11.28;84.76;101558.59;5053222;28;53289;-69
2023/12/14 07:59:47;;;;;;;;;2.75;2.75;;;;;11.37;84.66;101572.69;5021723;28;47102;-69
2023/12/14 08:02:12;;;;;;;;;1.50;1.50;;;;;11.38;84.52;101583.34;5033972;28;45591;-69
2023/12/14 08:04:38;;;;;;;;;4.00;2.00;;;;;11.28;84.44;101557.72;5052973;28;45505;-69
2023/12/14 08:07:03;;;;;;;;;2.00;2.00;;;;;11.43;84.32;101589.47;5039515;28;45308;-69
2023/12/14 08:09:28;;;;;;;;;1.75;1.75;;;;;11.36;84.14;101587.84;5044566;28;45704;-69
2023/12/14 08:11:53;;;;;;;;;2.00;1.00;;;;;11.35;83.61;101586.06;5049963;28;62326;-69
2023/12/14 08:14:19;;;;;;;;;2.00;1.00;;;;;11.38;83.94;101607.41;5054856;28;45338;-69
2023/12/14 08:16:44;;;;;;;;;2.75;2.00;;;;;11.28;83.81;101592.47;5050508;28;45242;-69
2023/12/14 08:19:09;;;;;;;;;3.00;2.00;;;;;11.26;83.75;101603.19;5038697;28;59780;-69
2023/12/14 08:21:35;;;;;;;;;3.00;1.25;;;;;11.29;84.09;101610.25;5039300;28;45476;-69
2023/12/14 08:24:00;;;;;;;;;5.75;3.50;;;;;11.22;84.13;101606.84;5045360;28;45332;-69
2023/12/14 08:26:25;;;;;;;;;1.00;1.00;;;;;11.22;84.37;101619.31;5030098;28;45423;-69
2023/12/14 08:28:51;;;;;;;;;5.50;3.50;;;;;11.29;84.55;101629.88;5056828;28;45941;-69
2023/12/14 08:31:16;;;;;;;;;4.00;4.00;;;;;11.22;84.24;101625.53;5039073;28;45357;-69
2023/12/14 08:33:42;;;;;;;;;3.00;3.00;;;;;11.09;84.40;101616.91;5040801;28;45951;-69
2023/12/14 08:36:08;;;;;;;;;4.25;3.25;;;;;11.10;84.02;101636.50;5051269;28;45586;-69
2023/12/14 08:38:33;;;;;;;;;4.50;3.00;;;;;11.14;84.42;101648.88;5033079;28;48269;-69
2023/12/14 08:40:58;;;;;;;;;5.00;4.00;;;;;11.04;84.37;101650.88;5049075;28;54618;-69
2023/12/14 08:43:24;;;;;;;;;4.25;3.00;;;;;11.10;84.43;101673.91;5044296;28;58185;-69
2023/12/14 08:45:49;;;;;;;;;3.00;3.00;;;;;11.06;84.55;101683.78;5029011;28;45685;-69
2023/12/14 08:48:14;;;;;;;;;2.50;2.00;;;;;11.05;84.55;101673.13;5044664;28;46425;-69
2023/12/14 08:50:39;;;;;;;;;2.50;1.25;;;;;11.06;84.29;101674.84;5045951;28;45357;-69
2023/12/14 08:53:05;;;;;;;;;3.00;3.00;;;;;10.98;83.92;101679.50;5036743;28;45324;-69
2023/12/14 08:55:31;;;;;;;;;3.00;3.00;;;;;11.00;84.57;101685.69;5050689;28;45664;-69
2023/12/14 08:57:57;;;;;;;;;3.75;3.00;;;;;10.82;84.18;101660.19;5039779;28;45399;-68
2023/12/14 09:00:23;;;;;;;;;2.75;2.75;;;;;10.92;84.14;101681.34;5051666;28;45328;-69
2023/12/14 09:02:49;;;;;;;;;4.00;2.00;;;;;10.93;83.89;101701.81;5034847;28;45343;-69
2023/12/14 09:05:16;;;;;;;;;3.00;3.00;;;;;10.76;83.93;101671.88;5051379;28;45339;-69
2023/12/14 09:07:41;;;;;;;;;3.00;3.00;;;;;10.88;83.71;101698.34;5048110;28;45697;-69
2023/12/14 09:10:07;;;;;;;;;2.50;2.50;;;;;10.94;83.50;101703.59;5065543;28;45340;-69
2023/12/14 09:12:34;;;;;;;;;4.25;4.00;;;;;10.69;83.27;101663.09;5065791;28;45560;-69
2023/12/14 09:15:00;;;;;;;;;3.00;3.00;;;;;10.97;83.35;101715.13;5032212;28;45497;-69
2023/12/14 09:17:26;;;;;;;;;2.25;2.25;;;;;10.90;83.75;101717.03;5059684;28;45499;-69
2023/12/14 09:19:51;;;;;;;;;2.00;2.00;;;;;10.79;83.46;101705.66;5042261;28;45292;-69
2023/12/14 09:22:17;;;;;;;;;3.00;3.00;;;;;10.67;83.04;101698.72;5042245;28;45432;-69
2023/12/14 09:24:43;;;;;;;;;2.25;2.25;;;;;10.77;82.99;101719.03;5050087;28;45300;-69
2023/12/14 09:27:08;;;;;;;;;3.50;2.50;;;;;10.90;83.11;101738.41;5045805;28;45445;-69
2023/12/14 09:29:33;;;;;;;;;3.75;2.75;;;;;10.66;83.02;101704.97;5058433;28;45312;-69
2023/12/14 09:31:59;;;;;;;;;3.00;3.00;;;;;10.91;83.32;101737.50;5059855;28;47907;-69
2023/12/14 09:34:24;;;;;;;;;3.00;2.75;;;;;10.74;83.22;101701.28;5054084;28;45482;-69
2023/12/14 09:36:49;;;;;;;;;5.75;2.25;;;;;10.97;83.02;101736.50;5054992;28;48011;-69
2023/12/14 09:39:15;;;;;;;;;2.50;2.50;;;;;10.77;82.94;101700.34;5037928;28;45345;-69
2023/12/14 09:41:41;;;;;;;;;5.00;4.00;;;;;10.93;82.86;101738.34;5029078;28;45360;-69
2023/12/14 09:44:06;;;;;;;;;6.75;3.50;;;;;11.02;82.45;101764.88;5043752;28;45365;-69
2023/12/14 09:46:34;;;;;;;;;6.00;3.00;;;;;10.84;82.89;101727.81;5042283;28;45494;-69
2023/12/14 09:49:01;;;;;;;;;6.00;5.00;;;;;10.89;82.13;101732.19;5043798;28;45430;-69
2023/12/14 09:51:26;;;;;;;;;7.75;4.75;;;;;10.96;82.18;101748.09;5023497;28;45529;-69
2023/12/14 09:53:57;;;;;;;;;3.00;3.00;;;;;10.96;82.30;101756.09;5055181;28;45370;-69
2023/12/14 09:56:26;;;;;;;;;3.25;3.00;;;;;10.88;81.87;101741.09;5030403;28;47850;-69
2023/12/14 09:58:52;;;;;;;;;3.50;3.50;;;;;11.06;82.12;101779.97;5035955;28;45553;-69
2023/12/14 10:01:26;;;;;;;;;4.00;4.00;;;;;11.06;81.81;101771.94;5023700;28;45353;-69
2023/12/14 10:04:24;;;;;;;;;3.75;2.25;;;;;10.91;81.37;101754.41;5027029;28;45903;-69
2023/12/14 10:06:49;;;;;;;;;6.75;3.00;;;;;10.90;81.27;101762.44;4976156;28;48003;-69
2023/12/14 10:09:22;;;;;;;;;3.00;3.00;;;;;11.06;80.59;101801.34;5061040;28;45387;-69
2023/12/14 10:12:01;;;;;;;;;5.00;2.25;;;;;10.83;80.53;101760.78;5053505;28;45413;-69
2023/12/14 10:14:26;;;;;;;;;2.00;2.00;;;;;10.94;80.52;101781.06;5041363;28;45328;-69
2023/12/14 10:16:52;;;;;;;;;3.25;2.25;;;;;11.10;80.35;101807.50;5033057;28;47520;-69
2023/12/14 10:19:19;;;;;;;;;3.50;3.00;;;;;11.14;80.01;101817.22;5058042;28;45402;-69
2023/12/14 10:21:46;;;;;;;;;3.00;2.00;;;;;11.06;80.26;101797.75;5041611;28;45413;-69
2023/12/14 10:24:12;;;;;;;;;4.00;2.00;;;;;10.95;80.10;101784.59;5043940;28;45290;-69
2023/12/14 10:26:38;;;;;;;;;4.00;4.00;;;;;11.02;80.38;101798.75;5042481;28;47357;-69
2023/12/14 10:29:04;;;;;;;;;3.25;3.25;;;;;11.03;80.22;101796.03;5056994;28;45300;-69
2023/12/14 10:31:30;;;;;;;;;2.50;2.00;;;;;11.13;80.12;101820.81;5034371;28;45363;-69
2023/12/14 10:33:56;;;;;;;;;3.75;3.75;;;;;11.03;80.59;101801.38;5046491;28;45310;-69
2023/12/14 10:36:24;;;;;;;;;4.25;4.00;;;;;11.10;80.08;101810.19;5023513;28;46988;-69
2023/12/14 10:38:53;;;;;;;;;3.00;2.75;;;;;11.15;79.80;101826.16;5058965;28;45551;-69
2023/12/14 10:41:20;;;;;;;;;5.00;3.75;;;;;11.16;79.57;101826.13;5049072;28;45421;-69
2023/12/14 10:43:50;;;;;;;;;4.00;4.00;;;;;11.17;78.97;101833.22;5041396;28;45398;-69
2023/12/14 10:46:15;;;;;;;;;4.00;2.75;;;;;11.04;78.93;101820.97;5046671;28;45464;-69
2023/12/14 10:48:45;;;;;;;;;3.50;3.00;;;;;11.27;79.24;101849.97;5042425;28;45691;-69
2023/12/14 10:51:12;;;;;;;;;4.00;4.00;;;;;11.27;78.91;101856.19;5052168;28;45359;-69
2023/12/14 10:53:38;;;;;;;;;4.00;4.00;;;;;11.16;78.70;101836.81;5042456;28;45453;-69
2023/12/14 10:56:09;;;;;;;;;5.00;3.00;;;;;11.10;78.70;101835.09;5040121;28;46710;-69
2023/12/14 10:58:50;;;;;;;;;4.00;3.00;;;;;11.06;78.36;101828.06;5054134;28;45567;-69
2023/12/14 11:01:18;;;;;;;;;2.25;2.25;;;;;11.32;78.19;101880.16;5040788;28;45592;-69
2023/12/14 11:03:44;;;;;;;;;4.25;2.00;;;;;11.02;78.04;101834.34;5040673;28;45467;-69
2023/12/14 11:06:37;;;;;;;;;3.00;3.00;;;;;11.36;78.59;101887.25;5040286;28;45331;-69
2023/12/14 11:09:14;;;;;;;;;4.50;3.50;;;;;11.19;78.21;101867.94;5047142;28;47311;-69
2023/12/14 11:11:53;;;;;;;;;3.00;3.00;;;;;11.10;78.18;101861.81;5050659;28;45453;-69
2023/12/14 11:14:19;;;;;;;;;2.75;2.75;;;;;11.11;78.01;101860.94;5040726;28;45494;-69
2023/12/14 11:16:46;;;;;;;;;2.00;2.00;;;;;11.06;78.31;101851.22;5052946;28;47465;-70
2023/12/14 11:19:21;;;;;;;;;3.00;3.00;;;;;11.37;78.65;101893.47;5048451;28;45281;-69